sensor_id;sensor_type;location;lat;lon;timestamp;temperature;humidity
42365;DHT22;28498;54.400;18.566;2023-09-30T00:00:10;17.10;99.90
42365;DHT22;28498;54.400;18.566;2023-09-30T00:02:38;17.10;99.90
42365;DHT22;28498;54.400;18.566;2023-09-30T00:05:06;17.10;99.90
42365;DHT22;28498;54.400;18.566;2023-09-30T00:07:33;17.10;99.90
42365;DHT22;28498;54.400;18.566;2023-09-30T00:10:00;17.00;99.90
42365;DHT22;28498;54.400;18.566;2023-09-30T00:12:27;17.00;99.90
42365;DHT22;28498;54.400;18.566;2023-09-30T00:14:55;16.90;99.90
42365;DHT22;28498;54.400;18.566;2023-09-30T00:17:22;16.80;99.90
42365;DHT22;28498;54.400;18.566;2023-09-30T00:19:49;16.80;99.90
42365;DHT22;28498;54.400;18.566;2023-09-30T00:22:16;16.80;99.90
42365;DHT22;28498;54.400;18.566;2023-09-30T00:24:43;16.80;99.90
42365;DHT22;28498;54.400;18.566;2023-09-30T00:27:10;16.80;99.90
42365;DHT22;28498;54.400;18.566;2023-09-30T00:29:37;16.60;99.90
42365;DHT22;28498;54.400;18.566;2023-09-30T00:32:04;16.70;99.90
42365;DHT22;28498;54.400;18.566;2023-09-30T00:34:35;16.70;99.90
42365;DHT22;28498;54.400;18.566;2023-09-30T00:37:02;16.60;99.90
42365;DHT22;28498;54.400;18.566;2023-09-30T00:39:29;16.60;99.90
42365;DHT22;28498;54.400;18.566;2023-09-30T00:41:58;16.60;99.90
42365;DHT22;28498;54.400;18.566;2023-09-30T00:44:26;16.70;99.90
42365;DHT22;28498;54.400;18.566;2023-09-30T00:46:54;17.10;99.90
42365;DHT22;28498;54.400;18.566;2023-09-30T00:49:25;17.10;99.90
42365;DHT22;28498;54.400;18.566;2023-09-30T00:51:54;17.10;99.90
42365;DHT22;28498;54.400;18.566;2023-09-30T00:54:23;17.30;99.90
42365;DHT22;28498;54.400;18.566;2023-09-30T00:56:52;17.40;99.90
42365;DHT22;28498;54.400;18.566;2023-09-30T00:59:22;17.40;99.90
42365;DHT22;28498;54.400;18.566;2023-09-30T01:01:50;17.40;99.90
42365;DHT22;28498;54.400;18.566;2023-09-30T01:04:17;17.70;99.90
42365;DHT22;28498;54.400;18.566;2023-09-30T01:06:45;17.60;99.90
42365;DHT22;28498;54.400;18.566;2023-09-30T01:09:12;17.60;99.90
42365;DHT22;28498;54.400;18.566;2023-09-30T01:11:40;17.50;99.90
42365;DHT22;28498;54.400;18.566;2023-09-30T01:14:26;17.70;99.90
42365;DHT22;28498;54.400;18.566;2023-09-30T01:16:54;17.70;99.90
42365;DHT22;28498;54.400;18.566;2023-09-30T01:19:22;17.50;99.90
42365;DHT22;28498;54.400;18.566;2023-09-30T01:21:55;17.40;99.90
42365;DHT22;28498;54.400;18.566;2023-09-30T01:24:29;17.40;99.90
42365;DHT22;28498;54.400;18.566;2023-09-30T01:26:57;17.40;99.90
42365;DHT22;28498;54.400;18.566;2023-09-30T01:29:24;17.40;99.90
42365;DHT22;28498;54.400;18.566;2023-09-30T01:31:52;17.30;99.90
42365;DHT22;28498;54.400;18.566;2023-09-30T01:34:20;17.20;99.90
42365;DHT22;28498;54.400;18.566;2023-09-30T01:36:47;17.40;99.90
42365;DHT22;28498;54.400;18.566;2023-09-30T01:39:14;17.30;99.90
42365;DHT22;28498;54.400;18.566;2023-09-30T01:41:42;17.30;99.90
42365;DHT22;28498;54.400;18.566;2023-09-30T01:44:09;17.20;99.90
42365;DHT22;28498;54.400;18.566;2023-09-30T01:46:36;17.20;99.90
42365;DHT22;28498;54.400;18.566;2023-09-30T01:49:03;17.10;99.90
42365;DHT22;28498;54.400;18.566;2023-09-30T01:51:30;17.10;99.90
42365;DHT22;28498;54.400;18.566;2023-09-30T01:53:58;17.10;99.90
42365;DHT22;28498;54.400;18.566;2023-09-30T01:56:25;17.00;99.90
42365;DHT22;28498;54.400;18.566;2023-09-30T01:58:52;17.10;99.90
42365;DHT22;28498;54.400;18.566;2023-09-30T02:01:20;17.00;99.90
42365;DHT22;28498;54.400;18.566;2023-09-30T02:03:47;17.00;99.90
42365;DHT22;28498;54.400;18.566;2023-09-30T02:06:15;17.10;99.90
42365;DHT22;28498;54.400;18.566;2023-09-30T02:08:42;17.00;99.90
42365;DHT22;28498;54.400;18.566;2023-09-30T02:11:11;16.90;99.90
42365;DHT22;28498;54.400;18.566;2023-09-30T02:13:43;17.00;99.90
42365;DHT22;28498;54.400;18.566;2023-09-30T02:16:12;17.20;99.90
42365;DHT22;28498;54.400;18.566;2023-09-30T02:18:43;17.20;99.90
42365;DHT22;28498;54.400;18.566;2023-09-30T02:21:12;17.20;99.90
42365;DHT22;28498;54.400;18.566;2023-09-30T02:23:39;17.10;99.90
42365;DHT22;28498;54.400;18.566;2023-09-30T02:26:06;17.20;99.90
42365;DHT22;28498;54.400;18.566;2023-09-30T02:28:33;17.30;99.90
42365;DHT22;28498;54.400;18.566;2023-09-30T02:31:01;17.40;99.90
42365;DHT22;28498;54.400;18.566;2023-09-30T02:33:28;17.30;99.90
42365;DHT22;28498;54.400;18.566;2023-09-30T02:35:55;17.40;99.90
42365;DHT22;28498;54.400;18.566;2023-09-30T02:38:22;17.50;99.90
42365;DHT22;28498;54.400;18.566;2023-09-30T02:40:50;17.50;99.90
42365;DHT22;28498;54.400;18.566;2023-09-30T02:43:18;17.60;99.90
42365;DHT22;28498;54.400;18.566;2023-09-30T02:45:45;17.80;99.90
42365;DHT22;28498;54.400;18.566;2023-09-30T02:48:13;17.80;99.90
42365;DHT22;28498;54.400;18.566;2023-09-30T02:50:43;17.80;99.90
42365;DHT22;28498;54.400;18.566;2023-09-30T02:53:13;17.80;99.90
42365;DHT22;28498;54.400;18.566;2023-09-30T02:55:41;17.80;99.90
42365;DHT22;28498;54.400;18.566;2023-09-30T02:58:08;17.90;99.90
42365;DHT22;28498;54.400;18.566;2023-09-30T03:00:36;17.90;99.90
42365;DHT22;28498;54.400;18.566;2023-09-30T03:03:04;17.80;99.90
42365;DHT22;28498;54.400;18.566;2023-09-30T03:05:32;17.80;99.90
42365;DHT22;28498;54.400;18.566;2023-09-30T03:08:00;17.90;99.90
42365;DHT22;28498;54.400;18.566;2023-09-30T03:10:28;17.90;99.90
42365;DHT22;28498;54.400;18.566;2023-09-30T03:12:56;17.90;99.90
42365;DHT22;28498;54.400;18.566;2023-09-30T03:15:29;18.00;99.90
42365;DHT22;28498;54.400;18.566;2023-09-30T03:17:59;18.00;99.90
42365;DHT22;28498;54.400;18.566;2023-09-30T03:20:30;17.90;99.90
42365;DHT22;28498;54.400;18.566;2023-09-30T03:22:57;17.90;99.90
42365;DHT22;28498;54.400;18.566;2023-09-30T03:25:26;17.90;99.90
42365;DHT22;28498;54.400;18.566;2023-09-30T03:27:53;18.00;99.90
42365;DHT22;28498;54.400;18.566;2023-09-30T03:30:21;18.00;99.90
42365;DHT22;28498;54.400;18.566;2023-09-30T03:32:48;18.10;99.90
42365;DHT22;28498;54.400;18.566;2023-09-30T03:35:15;18.10;99.90
42365;DHT22;28498;54.400;18.566;2023-09-30T03:37:45;18.10;99.90
42365;DHT22;28498;54.400;18.566;2023-09-30T03:40:14;18.10;99.90
42365;DHT22;28498;54.400;18.566;2023-09-30T03:42:47;18.10;99.90
42365;DHT22;28498;54.400;18.566;2023-09-30T03:45:16;18.00;99.90
42365;DHT22;28498;54.400;18.566;2023-09-30T03:47:44;17.90;99.90
42365;DHT22;28498;54.400;18.566;2023-09-30T03:50:12;17.70;99.90
42365;DHT22;28498;54.400;18.566;2023-09-30T03:52:43;17.50;99.90
42365;DHT22;28498;54.400;18.566;2023-09-30T03:55:15;17.30;99.90
42365;DHT22;28498;54.400;18.566;2023-09-30T03:57:44;17.20;99.90
42365;DHT22;28498;54.400;18.566;2023-09-30T04:00:15;17.00;99.90
42365;DHT22;28498;54.400;18.566;2023-09-30T04:02:53;16.90;99.90
42365;DHT22;28498;54.400;18.566;2023-09-30T04:05:25;16.90;99.90
42365;DHT22;28498;54.400;18.566;2023-09-30T04:07:56;16.90;99.90
42365;DHT22;28498;54.400;18.566;2023-09-30T04:10:23;16.90;99.90
42365;DHT22;28498;54.400;18.566;2023-09-30T04:12:51;16.90;99.90
42365;DHT22;28498;54.400;18.566;2023-09-30T04:15:19;16.80;99.90
42365;DHT22;28498;54.400;18.566;2023-09-30T04:17:48;16.80;99.90
42365;DHT22;28498;54.400;18.566;2023-09-30T04:20:16;16.70;99.90
42365;DHT22;28498;54.400;18.566;2023-09-30T04:22:50;16.60;99.90
42365;DHT22;28498;54.400;18.566;2023-09-30T04:25:17;16.50;99.90
42365;DHT22;28498;54.400;18.566;2023-09-30T04:27:46;16.50;99.90
42365;DHT22;28498;54.400;18.566;2023-09-30T04:30:16;16.40;99.90
42365;DHT22;28498;54.400;18.566;2023-09-30T04:32:44;16.40;99.90
42365;DHT22;28498;54.400;18.566;2023-09-30T04:35:11;16.30;99.90
42365;DHT22;28498;54.400;18.566;2023-09-30T04:37:38;16.30;99.90
42365;DHT22;28498;54.400;18.566;2023-09-30T04:40:07;16.30;99.90
42365;DHT22;28498;54.400;18.566;2023-09-30T04:42:36;16.30;99.90
42365;DHT22;28498;54.400;18.566;2023-09-30T04:45:06;16.30;99.90
42365;DHT22;28498;54.400;18.566;2023-09-30T04:47:34;16.30;99.90
42365;DHT22;28498;54.400;18.566;2023-09-30T04:50:01;16.30;99.90
42365;DHT22;28498;54.400;18.566;2023-09-30T04:52:34;16.30;99.90
42365;DHT22;28498;54.400;18.566;2023-09-30T04:55:01;16.20;99.90
42365;DHT22;28498;54.400;18.566;2023-09-30T04:57:29;16.20;99.90
42365;DHT22;28498;54.400;18.566;2023-09-30T04:59:58;16.10;99.90
42365;DHT22;28498;54.400;18.566;2023-09-30T05:02:25;16.10;99.90
42365;DHT22;28498;54.400;18.566;2023-09-30T05:04:52;16.10;99.90
42365;DHT22;28498;54.400;18.566;2023-09-30T05:07:20;16.00;99.90
42365;DHT22;28498;54.400;18.566;2023-09-30T05:09:50;16.00;99.90
42365;DHT22;28498;54.400;18.566;2023-09-30T05:12:17;15.90;99.90
42365;DHT22;28498;54.400;18.566;2023-09-30T05:14:45;15.80;99.90
42365;DHT22;28498;54.400;18.566;2023-09-30T05:17:12;15.80;99.90
42365;DHT22;28498;54.400;18.566;2023-09-30T05:19:40;15.70;99.90
42365;DHT22;28498;54.400;18.566;2023-09-30T05:22:07;15.70;99.90
42365;DHT22;28498;54.400;18.566;2023-09-30T05:24:34;15.60;99.90
42365;DHT22;28498;54.400;18.566;2023-09-30T05:27:02;15.60;99.90
42365;DHT22;28498;54.400;18.566;2023-09-30T05:29:29;15.60;99.90
42365;DHT22;28498;54.400;18.566;2023-09-30T05:31:56;15.50;99.90
42365;DHT22;28498;54.400;18.566;2023-09-30T05:34:23;15.40;99.90
42365;DHT22;28498;54.400;18.566;2023-09-30T05:36:51;15.50;99.90
42365;DHT22;28498;54.400;18.566;2023-09-30T05:39:18;15.40;99.90
42365;DHT22;28498;54.400;18.566;2023-09-30T05:41:47;15.40;99.90
42365;DHT22;28498;54.400;18.566;2023-09-30T05:44:14;15.40;99.90
42365;DHT22;28498;54.400;18.566;2023-09-30T05:46:41;15.40;99.90
42365;DHT22;28498;54.400;18.566;2023-09-30T05:49:10;15.40;99.90
42365;DHT22;28498;54.400;18.566;2023-09-30T05:51:38;15.40;99.90
42365;DHT22;28498;54.400;18.566;2023-09-30T05:54:05;15.50;99.90
42365;DHT22;28498;54.400;18.566;2023-09-30T05:56:34;15.50;99.90
42365;DHT22;28498;54.400;18.566;2023-09-30T05:59:01;15.50;99.90
42365;DHT22;28498;54.400;18.566;2023-09-30T06:01:28;15.50;99.90
42365;DHT22;28498;54.400;18.566;2023-09-30T06:03:56;15.50;99.90
42365;DHT22;28498;54.400;18.566;2023-09-30T06:06:23;15.60;99.90
42365;DHT22;28498;54.400;18.566;2023-09-30T06:08:52;15.50;99.90
42365;DHT22;28498;54.400;18.566;2023-09-30T06:11:21;15.60;99.90
42365;DHT22;28498;54.400;18.566;2023-09-30T06:13:51;15.60;99.90
42365;DHT22;28498;54.400;18.566;2023-09-30T06:16:20;15.60;99.90
42365;DHT22;28498;54.400;18.566;2023-09-30T06:18:47;15.60;99.90
42365;DHT22;28498;54.400;18.566;2023-09-30T06:21:15;15.60;99.90
42365;DHT22;28498;54.400;18.566;2023-09-30T06:23:48;15.60;99.90
42365;DHT22;28498;54.400;18.566;2023-09-30T06:26:21;15.70;99.90
42365;DHT22;28498;54.400;18.566;2023-09-30T06:28:48;15.70;99.90
42365;DHT22;28498;54.400;18.566;2023-09-30T06:31:15;15.80;99.90
42365;DHT22;28498;54.400;18.566;2023-09-30T06:33:42;15.90;99.90
42365;DHT22;28498;54.400;18.566;2023-09-30T06:36:14;15.90;99.90
42365;DHT22;28498;54.400;18.566;2023-09-30T06:38:42;15.90;99.90
42365;DHT22;28498;54.400;18.566;2023-09-30T06:41:12;15.90;99.90
42365;DHT22;28498;54.400;18.566;2023-09-30T06:43:42;15.90;99.90
42365;DHT22;28498;54.400;18.566;2023-09-30T06:46:10;15.90;99.90
42365;DHT22;28498;54.400;18.566;2023-09-30T06:48:37;15.90;99.90
42365;DHT22;28498;54.400;18.566;2023-09-30T06:51:07;15.90;99.90
42365;DHT22;28498;54.400;18.566;2023-09-30T06:53:34;15.90;99.90
42365;DHT22;28498;54.400;18.566;2023-09-30T06:56:05;15.90;99.90
42365;DHT22;28498;54.400;18.566;2023-09-30T06:58:33;16.00;99.90
42365;DHT22;28498;54.400;18.566;2023-09-30T07:01:00;15.90;99.90
42365;DHT22;28498;54.400;18.566;2023-09-30T07:07:08;15.80;99.90
42365;DHT22;28498;54.400;18.566;2023-09-30T07:09:36;15.90;99.90
42365;DHT22;28498;54.400;18.566;2023-09-30T07:12:03;15.90;99.90
42365;DHT22;28498;54.400;18.566;2023-09-30T07:14:31;15.90;99.90
42365;DHT22;28498;54.400;18.566;2023-09-30T07:16:58;15.90;99.90
42365;DHT22;28498;54.400;18.566;2023-09-30T07:19:25;16.00;99.90
42365;DHT22;28498;54.400;18.566;2023-09-30T07:21:52;16.00;99.90
42365;DHT22;28498;54.400;18.566;2023-09-30T07:24:30;16.00;99.90
42365;DHT22;28498;54.400;18.566;2023-09-30T07:26:57;16.10;99.90
42365;DHT22;28498;54.400;18.566;2023-09-30T07:33:08;16.20;99.90
42365;DHT22;28498;54.400;18.566;2023-09-30T07:35:35;16.30;99.90
42365;DHT22;28498;54.400;18.566;2023-09-30T07:38:03;16.30;99.90
42365;DHT22;28498;54.400;18.566;2023-09-30T07:40:31;16.30;99.90
42365;DHT22;28498;54.400;18.566;2023-09-30T07:42:59;16.40;99.90
42365;DHT22;28498;54.400;18.566;2023-09-30T07:45:26;16.50;99.90
42365;DHT22;28498;54.400;18.566;2023-09-30T07:47:55;16.50;99.90
42365;DHT22;28498;54.400;18.566;2023-09-30T07:50:22;16.60;99.90
42365;DHT22;28498;54.400;18.566;2023-09-30T07:52:49;16.80;99.90
42365;DHT22;28498;54.400;18.566;2023-09-30T07:59:03;17.00;99.90
42365;DHT22;28498;54.400;18.566;2023-09-30T08:01:32;17.10;99.90
42365;DHT22;28498;54.400;18.566;2023-09-30T08:03:59;17.20;99.90
42365;DHT22;28498;54.400;18.566;2023-09-30T08:06:26;17.30;99.90
42365;DHT22;28498;54.400;18.566;2023-09-30T08:08:53;17.30;99.90
42365;DHT22;28498;54.400;18.566;2023-09-30T08:11:22;17.30;99.90
42365;DHT22;28498;54.400;18.566;2023-09-30T08:13:49;17.20;99.90
42365;DHT22;28498;54.400;18.566;2023-09-30T08:16:16;17.10;99.90
42365;DHT22;28498;54.400;18.566;2023-09-30T08:18:47;17.20;99.90
42365;DHT22;28498;54.400;18.566;2023-09-30T08:21:15;17.00;99.90
42365;DHT22;28498;54.400;18.566;2023-09-30T08:23:43;16.70;99.90
42365;DHT22;28498;54.400;18.566;2023-09-30T08:26:10;16.70;99.90
42365;DHT22;28498;54.400;18.566;2023-09-30T08:28:38;16.80;99.90
42365;DHT22;28498;54.400;18.566;2023-09-30T08:31:05;16.80;99.90
42365;DHT22;28498;54.400;18.566;2023-09-30T08:33:33;16.80;99.90
42365;DHT22;28498;54.400;18.566;2023-09-30T08:36:03;17.00;99.90
42365;DHT22;28498;54.400;18.566;2023-09-30T08:38:38;17.20;99.90
42365;DHT22;28498;54.400;18.566;2023-09-30T08:41:06;17.50;99.90
42365;DHT22;28498;54.400;18.566;2023-09-30T08:43:38;17.70;99.90
42365;DHT22;28498;54.400;18.566;2023-09-30T08:46:07;17.90;99.90
42365;DHT22;28498;54.400;18.566;2023-09-30T08:48:34;17.80;99.90
42365;DHT22;28498;54.400;18.566;2023-09-30T08:51:02;17.90;99.90
42365;DHT22;28498;54.400;18.566;2023-09-30T08:53:30;17.80;99.90
42365;DHT22;28498;54.400;18.566;2023-09-30T08:55:58;17.70;99.90
42365;DHT22;28498;54.400;18.566;2023-09-30T08:58:31;17.60;99.90
42365;DHT22;28498;54.400;18.566;2023-09-30T09:00:59;17.60;99.90
42365;DHT22;28498;54.400;18.566;2023-09-30T09:03:28;17.60;99.90
42365;DHT22;28498;54.400;18.566;2023-09-30T09:05:57;17.50;99.90
42365;DHT22;28498;54.400;18.566;2023-09-30T09:08:25;17.40;99.90
42365;DHT22;28498;54.400;18.566;2023-09-30T09:10:57;17.60;99.90
42365;DHT22;28498;54.400;18.566;2023-09-30T09:17:07;18.00;99.90
42365;DHT22;28498;54.400;18.566;2023-09-30T09:19:35;18.10;99.90
42365;DHT22;28498;54.400;18.566;2023-09-30T09:22:03;18.40;99.90
42365;DHT22;28498;54.400;18.566;2023-09-30T09:24:35;18.40;99.90
42365;DHT22;28498;54.400;18.566;2023-09-30T09:27:13;17.90;99.90
42365;DHT22;28498;54.400;18.566;2023-09-30T09:29:44;17.80;99.90
42365;DHT22;28498;54.400;18.566;2023-09-30T09:32:16;17.90;99.90
42365;DHT22;28498;54.400;18.566;2023-09-30T09:34:44;18.30;99.90
42365;DHT22;28498;54.400;18.566;2023-09-30T09:37:21;18.40;99.90
42365;DHT22;28498;54.400;18.566;2023-09-30T09:39:53;18.50;99.90
42365;DHT22;28498;54.400;18.566;2023-09-30T09:42:33;18.80;99.90
42365;DHT22;28498;54.400;18.566;2023-09-30T09:45:04;19.00;99.90
42365;DHT22;28498;54.400;18.566;2023-09-30T09:47:36;19.30;99.90
42365;DHT22;28498;54.400;18.566;2023-09-30T09:50:04;19.10;99.90
42365;DHT22;28498;54.400;18.566;2023-09-30T09:52:34;19.10;99.90
42365;DHT22;28498;54.400;18.566;2023-09-30T09:55:02;18.90;99.90
42365;DHT22;28498;54.400;18.566;2023-09-30T09:57:31;18.50;99.90
42365;DHT22;28498;54.400;18.566;2023-09-30T09:59:58;18.70;99.90
42365;DHT22;28498;54.400;18.566;2023-09-30T10:02:26;19.00;99.90
42365;DHT22;28498;54.400;18.566;2023-09-30T10:04:55;19.20;99.90
42365;DHT22;28498;54.400;18.566;2023-09-30T10:07:29;19.10;97.20
42365;DHT22;28498;54.400;18.566;2023-09-30T10:10:01;19.20;95.40
42365;DHT22;28498;54.400;18.566;2023-09-30T10:12:36;19.10;98.90
42365;DHT22;28498;54.400;18.566;2023-09-30T10:18:03;19.10;99.90
42365;DHT22;28498;54.400;18.566;2023-09-30T10:20:33;19.10;98.70
42365;DHT22;28498;54.400;18.566;2023-09-30T10:23:19;19.40;99.80
42365;DHT22;28498;54.400;18.566;2023-09-30T10:25:48;19.10;99.30
42365;DHT22;28498;54.400;18.566;2023-09-30T10:28:39;19.10;99.90
42365;DHT22;28498;54.400;18.566;2023-09-30T10:31:17;19.20;99.90
42365;DHT22;28498;54.400;18.566;2023-09-30T10:39:00;18.50;99.90
42365;DHT22;28498;54.400;18.566;2023-09-30T10:46:49;18.10;99.90
42365;DHT22;28498;54.400;18.566;2023-09-30T10:51:54;18.30;99.90
42365;DHT22;28498;54.400;18.566;2023-09-30T10:54:26;18.30;99.90
42365;DHT22;28498;54.400;18.566;2023-09-30T10:56:54;18.10;99.90
42365;DHT22;28498;54.400;18.566;2023-09-30T10:59:25;18.10;99.90
42365;DHT22;28498;54.400;18.566;2023-09-30T11:01:53;17.90;99.90
42365;DHT22;28498;54.400;18.566;2023-09-30T11:04:20;18.10;99.90
42365;DHT22;28498;54.400;18.566;2023-09-30T11:06:48;18.10;99.90
42365;DHT22;28498;54.400;18.566;2023-09-30T11:09:22;18.10;99.90
42365;DHT22;28498;54.400;18.566;2023-09-30T11:11:51;17.90;99.90
42365;DHT22;28498;54.400;18.566;2023-09-30T11:14:30;17.80;99.90
42365;DHT22;28498;54.400;18.566;2023-09-30T11:17:01;17.70;99.90
42365;DHT22;28498;54.400;18.566;2023-09-30T11:19:47;17.80;99.90
42365;DHT22;28498;54.400;18.566;2023-09-30T11:22:14;18.00;99.90
42365;DHT22;28498;54.400;18.566;2023-09-30T11:24:42;18.30;99.90
42365;DHT22;28498;54.400;18.566;2023-09-30T11:27:09;18.50;99.90
42365;DHT22;28498;54.400;18.566;2023-09-30T11:29:36;18.80;99.90
42365;DHT22;28498;54.400;18.566;2023-09-30T11:36:05;19.00;99.90
42365;DHT22;28498;54.400;18.566;2023-09-30T11:38:34;18.70;99.90
42365;DHT22;28498;54.400;18.566;2023-09-30T11:41:03;18.60;99.90
42365;DHT22;28498;54.400;18.566;2023-09-30T11:43:34;18.40;99.90
42365;DHT22;28498;54.400;18.566;2023-09-30T11:46:11;18.30;99.90
42365;DHT22;28498;54.400;18.566;2023-09-30T11:49:02;18.10;99.90
42365;DHT22;28498;54.400;18.566;2023-09-30T11:51:29;18.10;99.90
42365;DHT22;28498;54.400;18.566;2023-09-30T11:54:00;18.20;99.90
42365;DHT22;28498;54.400;18.566;2023-09-30T12:00:15;18.70;99.90
42365;DHT22;28498;54.400;18.566;2023-09-30T12:02:44;19.10;99.90
42365;DHT22;28498;54.400;18.566;2023-09-30T12:05:11;19.30;99.90
42365;DHT22;28498;54.400;18.566;2023-09-30T12:07:40;19.40;99.90
42365;DHT22;28498;54.400;18.566;2023-09-30T12:10:10;19.20;99.90
42365;DHT22;28498;54.400;18.566;2023-09-30T12:12:37;19.00;99.90
42365;DHT22;28498;54.400;18.566;2023-09-30T12:15:07;19.10;99.90
42365;DHT22;28498;54.400;18.566;2023-09-30T12:17:36;19.10;99.90
42365;DHT22;28498;54.400;18.566;2023-09-30T12:20:04;19.30;99.90
42365;DHT22;28498;54.400;18.566;2023-09-30T12:22:31;19.50;95.10
42365;DHT22;28498;54.400;18.566;2023-09-30T12:24:59;19.50;99.90
42365;DHT22;28498;54.400;18.566;2023-09-30T12:27:27;19.60;92.60
42365;DHT22;28498;54.400;18.566;2023-09-30T12:29:55;19.60;90.80
42365;DHT22;28498;54.400;18.566;2023-09-30T12:32:22;19.60;91.70
42365;DHT22;28498;54.400;18.566;2023-09-30T12:34:50;19.30;90.90
42365;DHT22;28498;54.400;18.566;2023-09-30T12:37:18;19.20;91.80
42365;DHT22;28498;54.400;18.566;2023-09-30T12:39:45;19.10;92.40
42365;DHT22;28498;54.400;18.566;2023-09-30T12:42:12;19.10;92.70
42365;DHT22;28498;54.400;18.566;2023-09-30T12:44:39;19.10;93.50
42365;DHT22;28498;54.400;18.566;2023-09-30T12:47:06;19.20;97.20
42365;DHT22;28498;54.400;18.566;2023-09-30T12:49:33;19.30;99.90
42365;DHT22;28498;54.400;18.566;2023-09-30T12:52:00;19.60;95.80
42365;DHT22;28498;54.400;18.566;2023-09-30T12:54:28;19.60;94.10
42365;DHT22;28498;54.400;18.566;2023-09-30T12:56:55;19.70;94.40
42365;DHT22;28498;54.400;18.566;2023-09-30T12:59:22;19.90;93.50
42365;DHT22;28498;54.400;18.566;2023-09-30T13:01:52;19.80;90.50
42365;DHT22;28498;54.400;18.566;2023-09-30T13:04:20;19.40;91.90
42365;DHT22;28498;54.400;18.566;2023-09-30T13:06:47;19.30;95.60
42365;DHT22;28498;54.400;18.566;2023-09-30T13:09:17;19.10;98.00
42365;DHT22;28498;54.400;18.566;2023-09-30T13:15:34;19.30;94.30
42365;DHT22;28498;54.400;18.566;2023-09-30T13:18:02;18.90;99.40
42365;DHT22;28498;54.400;18.566;2023-09-30T13:20:30;18.60;99.90
42365;DHT22;28498;54.400;18.566;2023-09-30T13:22:57;18.60;99.90
42365;DHT22;28498;54.400;18.566;2023-09-30T13:25:24;18.70;99.90
42365;DHT22;28498;54.400;18.566;2023-09-30T13:27:53;18.90;99.90
42365;DHT22;28498;54.400;18.566;2023-09-30T13:30:20;18.90;99.90
42365;DHT22;28498;54.400;18.566;2023-09-30T13:32:47;19.00;99.90
42365;DHT22;28498;54.400;18.566;2023-09-30T13:35:15;18.90;99.90
42365;DHT22;28498;54.400;18.566;2023-09-30T13:37:42;18.90;99.90
42365;DHT22;28498;54.400;18.566;2023-09-30T13:40:09;18.90;99.90
42365;DHT22;28498;54.400;18.566;2023-09-30T13:42:39;18.80;99.90
42365;DHT22;28498;54.400;18.566;2023-09-30T13:45:06;18.80;99.90
42365;DHT22;28498;54.400;18.566;2023-09-30T13:47:34;18.60;99.90
42365;DHT22;28498;54.400;18.566;2023-09-30T13:50:02;18.40;99.90
42365;DHT22;28498;54.400;18.566;2023-09-30T13:52:31;18.40;99.90
42365;DHT22;28498;54.400;18.566;2023-09-30T13:55:01;18.30;99.90
42365;DHT22;28498;54.400;18.566;2023-09-30T13:57:29;18.40;99.90
42365;DHT22;28498;54.400;18.566;2023-09-30T13:59:56;18.40;99.90
42365;DHT22;28498;54.400;18.566;2023-09-30T14:02:23;18.30;99.90
42365;DHT22;28498;54.400;18.566;2023-09-30T14:04:51;18.20;99.90
42365;DHT22;28498;54.400;18.566;2023-09-30T14:07:21;18.10;99.90
42365;DHT22;28498;54.400;18.566;2023-09-30T14:09:50;18.30;99.90
42365;DHT22;28498;54.400;18.566;2023-09-30T14:12:19;18.10;99.90
42365;DHT22;28498;54.400;18.566;2023-09-30T14:14:46;17.90;99.90
42365;DHT22;28498;54.400;18.566;2023-09-30T14:17:13;18.00;99.90
42365;DHT22;28498;54.400;18.566;2023-09-30T14:19:41;17.70;99.90
42365;DHT22;28498;54.400;18.566;2023-09-30T14:22:09;17.70;99.90
42365;DHT22;28498;54.400;18.566;2023-09-30T14:24:36;17.50;99.90
42365;DHT22;28498;54.400;18.566;2023-09-30T14:27:03;17.60;99.90
42365;DHT22;28498;54.400;18.566;2023-09-30T14:29:31;17.90;99.90
42365;DHT22;28498;54.400;18.566;2023-09-30T14:31:59;17.90;99.90
42365;DHT22;28498;54.400;18.566;2023-09-30T14:34:26;17.80;99.90
42365;DHT22;28498;54.400;18.566;2023-09-30T14:36:53;17.80;99.90
42365;DHT22;28498;54.400;18.566;2023-09-30T14:39:20;18.10;99.90
42365;DHT22;28498;54.400;18.566;2023-09-30T14:41:47;18.70;99.90
42365;DHT22;28498;54.400;18.566;2023-09-30T14:44:14;18.60;99.90
42365;DHT22;28498;54.400;18.566;2023-09-30T14:46:41;18.40;99.90
42365;DHT22;28498;54.400;18.566;2023-09-30T14:49:08;18.20;99.90
42365;DHT22;28498;54.400;18.566;2023-09-30T14:51:36;18.10;99.90
42365;DHT22;28498;54.400;18.566;2023-09-30T14:54:03;17.80;99.90
42365;DHT22;28498;54.400;18.566;2023-09-30T14:56:31;17.70;99.90
42365;DHT22;28498;54.400;18.566;2023-09-30T14:58:58;17.70;99.90
42365;DHT22;28498;54.400;18.566;2023-09-30T15:01:25;17.50;99.90
42365;DHT22;28498;54.400;18.566;2023-09-30T15:03:53;17.40;99.90
42365;DHT22;28498;54.400;18.566;2023-09-30T15:06:20;17.40;99.90
42365;DHT22;28498;54.400;18.566;2023-09-30T15:08:51;17.40;99.90
42365;DHT22;28498;54.400;18.566;2023-09-30T15:11:18;17.40;99.90
42365;DHT22;28498;54.400;18.566;2023-09-30T15:13:45;17.50;99.90
42365;DHT22;28498;54.400;18.566;2023-09-30T15:16:19;17.60;99.90
42365;DHT22;28498;54.400;18.566;2023-09-30T15:18:48;17.80;99.90
42365;DHT22;28498;54.400;18.566;2023-09-30T15:21:17;17.60;99.90
42365;DHT22;28498;54.400;18.566;2023-09-30T15:23:44;17.40;99.90
42365;DHT22;28498;54.400;18.566;2023-09-30T15:26:11;17.20;99.90
42365;DHT22;28498;54.400;18.566;2023-09-30T15:28:38;17.10;99.90
42365;DHT22;28498;54.400;18.566;2023-09-30T15:31:05;16.80;99.90
42365;DHT22;28498;54.400;18.566;2023-09-30T15:33:34;16.80;99.90
42365;DHT22;28498;54.400;18.566;2023-09-30T15:36:11;16.60;99.90
42365;DHT22;28498;54.400;18.566;2023-09-30T15:38:39;16.60;99.90
42365;DHT22;28498;54.400;18.566;2023-09-30T15:44:53;16.40;99.90
42365;DHT22;28498;54.400;18.566;2023-09-30T15:47:23;16.30;99.90
42365;DHT22;28498;54.400;18.566;2023-09-30T15:49:51;16.30;99.90
42365;DHT22;28498;54.400;18.566;2023-09-30T15:52:18;16.20;99.90
42365;DHT22;28498;54.400;18.566;2023-09-30T15:54:45;16.20;99.90
42365;DHT22;28498;54.400;18.566;2023-09-30T15:57:16;16.10;99.90
42365;DHT22;28498;54.400;18.566;2023-09-30T15:59:43;16.00;99.90
42365;DHT22;28498;54.400;18.566;2023-09-30T16:02:10;15.90;99.90
42365;DHT22;28498;54.400;18.566;2023-09-30T16:04:37;15.80;99.90
42365;DHT22;28498;54.400;18.566;2023-09-30T16:07:05;15.80;99.90
42365;DHT22;28498;54.400;18.566;2023-09-30T16:09:32;15.80;99.90